Time;durP1;ratioP1;P1;durP2;ratioP2;P2;SDS_P1;SDS_P2;PMS_P1;PMS_P2;Temp;Humidity;BMP_temperature;BMP_pressure;BME280_temperature;BME280_humidity;BME280_pressure;Samples;Min_cycle;Max_cycle;Signal;HPM_P1;HPM_P2
2022/08/28 00:01:06;;;;;;;;;7.00;7.00;;;;;20.55;75.50;99934.81;5017538;28;45417;-69
2022/08/28 00:03:33;;;;;;;;;7.33;7.33;;;;;20.49;75.43;99913.72;5017923;28;45520;-70
2022/08/28 00:05:59;;;;;;;;;8.67;7.33;;;;;20.49;75.49;99921.66;5018259;28;45493;-70
2022/08/28 00:08:24;;;;;;;;;7.67;6.67;;;;;20.44;75.65;99905.84;5017116;28;45885;-73
2022/08/28 00:10:51;;;;;;;;;6.00;6.00;;;;;20.51;75.67;99917.19;5018563;28;45347;-70
2022/08/28 00:13:20;;;;;;;;;7.00;7.00;;;;;20.48;75.64;99917.28;5018740;28;46169;-72
2022/08/28 00:15:48;;;;;;;;;8.33;7.00;;;;;20.49;75.60;99911.06;5018340;28;46178;-72
2022/08/28 00:18:14;;;;;;;;;8.00;7.33;;;;;20.40;76.01;99909.47;5018753;28;45344;-72
2022/08/28 00:20:40;;;;;;;;;8.67;8.00;;;;;20.39;75.75;99908.63;5018781;28;45485;-73
2022/08/28 00:23:06;;;;;;;;;6.00;6.00;;;;;20.32;76.14;99906.97;5018500;28;46048;-72
2022/08/28 00:25:33;;;;;;;;;7.00;7.00;;;;;20.26;76.55;99912.41;5018447;28;45451;-72
2022/08/28 00:28:01;;;;;;;;;5.33;5.33;;;;;20.06;76.50;99880.97;5018432;28;45475;-69
2022/08/28 00:30:31;;;;;;;;;10.00;9.00;;;;;20.10;76.87;99881.81;5018419;28;45308;-69
2022/08/28 00:33:02;;;;;;;;;9.00;7.00;;;;;20.21;76.41;99904.56;5018186;28;45504;-69
2022/08/28 00:35:28;;;;;;;;;9.00;8.67;;;;;20.19;75.98;99892.19;5018153;28;45436;-69
2022/08/28 00:37:54;;;;;;;;;7.00;7.00;;;;;20.18;75.77;99885.16;5018339;28;45549;-70
2022/08/28 00:40:22;;;;;;;;;6.00;6.00;;;;;20.03;76.36;99883.69;5018486;28;45309;-70
2022/08/28 00:42:48;;;;;;;;;8.00;8.00;;;;;20.10;76.43;99903.00;5018188;28;45425;-72
2022/08/28 00:45:17;;;;;;;;;7.33;7.00;;;;;20.09;76.53;99899.47;5018019;28;45604;-70
2022/08/28 00:47:44;;;;;;;;;8.00;8.00;;;;;19.86;76.18;99865.47;5018075;28;45510;-72
2022/08/28 00:50:16;;;;;;;;;7.33;6.00;;;;;19.94;75.77;99890.03;5017355;28;45376;-72
2022/08/28 00:52:45;;;;;;;;;8.00;6.00;;;;;19.88;76.25;99892.81;5018349;28;45637;-70
2022/08/28 00:55:17;;;;;;;;;7.00;7.00;;;;;19.78;76.32;99870.03;5017806;28;45299;-71
2022/08/28 00:57:53;;;;;;;;;8.33;8.33;;;;;19.81;77.16;99884.09;5017821;28;45381;-72
2022/08/28 01:00:28;;;;;;;;;9.33;7.00;;;;;19.88;76.87;99895.47;5018062;28;45471;-72
2022/08/28 01:02:54;;;;;;;;;9.33;8.00;;;;;19.91;77.30;99891.88;5016242;28;47554;-72
2022/08/28 01:05:20;;;;;;;;;6.00;5.33;;;;;19.85;77.52;99893.72;5017916;28;45413;-71
2022/08/28 01:07:46;;;;;;;;;8.67;8.67;;;;;19.86;76.99;99902.56;5017964;28;45439;-72
2022/08/28 01:10:19;;;;;;;;;8.33;8.33;;;;;19.85;77.47;99899.03;5018351;28;45301;-72
2022/08/28 01:12:46;;;;;;;;;8.33;8.00;;;;;19.90;76.88;99908.69;5017333;28;45501;-71
2022/08/28 01:15:16;;;;;;;;;10.67;10.67;;;;;19.93;77.35;99901.53;5017983;28;45394;-72
2022/08/28 01:17:47;;;;;;;;;7.67;7.00;;;;;19.93;77.26;99892.72;5033379;28;45394;-72
2022/08/28 01:20:16;;;;;;;;;7.00;7.00;;;;;19.96;76.72;99900.63;5018162;28;45499;-70
2022/08/28 01:22:53;;;;;;;;;11.33;9.67;;;;;19.77;76.29;99870.94;5017867;28;46303;-72
2022/08/28 01:25:23;;;;;;;;;8.00;8.00;;;;;19.81;76.64;99878.78;5017640;28;45326;-72
2022/08/28 01:27:50;;;;;;;;;8.33;8.33;;;;;19.86;76.51;99891.97;5017799;28;45977;-71
2022/08/28 01:30:19;;;;;;;;;8.00;8.00;;;;;19.76;76.87;99890.41;5017725;28;45505;-72
2022/08/28 01:32:48;;;;;;;;;7.33;7.33;;;;;19.55;76.78;99879.22;5017320;28;45379;-71
2022/08/28 01:35:19;;;;;;;;;8.00;7.00;;;;;19.62;77.17;99891.47;5017497;28;45341;-72
2022/08/28 01:37:45;;;;;;;;;8.00;8.00;;;;;19.64;77.30;99897.63;5017725;28;45510;-71
2022/08/28 01:40:17;;;;;;;;;6.00;6.00;;;;;19.71;77.08;99908.09;5018056;28;45324;-72
2022/08/28 01:42:43;;;;;;;;;9.33;8.00;;;;;19.77;77.02;99908.88;5016209;28;46847;-73
2022/08/28 01:45:16;;;;;;;;;8.00;8.00;;;;;19.79;77.31;99912.38;5017371;28;45313;-72
2022/08/28 01:47:43;;;;;;;;;8.00;8.00;;;;;19.83;77.19;99905.25;5017728;28;45498;-73
2022/08/28 01:50:11;;;;;;;;;8.33;8.00;;;;;19.85;77.50;99895.50;5017467;28;45469;-73
2022/08/28 01:52:37;;;;;;;;;8.00;8.00;;;;;19.84;77.70;99883.16;5017171;28;45455;-71
2022/08/28 01:55:05;;;;;;;;;6.33;6.33;;;;;19.57;78.02;99842.13;5017157;28;45359;-72
2022/08/28 01:57:31;;;;;;;;;10.00;9.67;;;;;19.46;76.41;99888.22;5017447;28;45344;-73
2022/08/28 01:59:56;;;;;;;;;8.00;7.67;;;;;19.25;78.26;99868.25;5016038;28;45603;-70
2022/08/28 02:02:22;;;;;;;;;10.67;9.67;;;;;19.18;79.73;99855.13;5015573;28;46809;-70
2022/08/28 02:04:47;;;;;;;;;8.67;8.67;;;;;19.24;78.99;99865.66;5017140;28;45562;-70
2022/08/28 02:07:15;;;;;;;;;11.00;9.33;;;;;19.29;79.69;99874.38;5017653;28;45457;-70
2022/08/28 02:09:41;;;;;;;;;11.00;9.33;;;;;19.31;80.52;99874.34;5017215;28;45308;-70
2022/08/28 02:12:07;;;;;;;;;12.00;11.00;;;;;19.37;80.82;99874.25;5016887;28;45471;-70
2022/08/28 02:14:32;;;;;;;;;11.00;11.00;;;;;19.41;80.50;99871.50;5017378;28;45497;-72
2022/08/28 02:16:58;;;;;;;;;9.33;8.33;;;;;19.43;80.88;99871.50;5019391;28;45499;-72
2022/08/28 02:19:23;;;;;;;;;8.67;8.00;;;;;19.43;80.07;99859.13;5020681;28;45498;-72
2022/08/28 02:21:49;;;;;;;;;11.00;11.00;;;;;19.46;81.18;99866.16;5019109;28;47311;-71
2022/08/28 02:24:15;;;;;;;;;9.33;9.33;;;;;19.53;80.69;99874.84;5019359;28;45340;-70
2022/08/28 02:26:43;;;;;;;;;8.67;8.67;;;;;19.58;80.05;99873.03;5020520;28;45379;-73
2022/08/28 02:29:10;;;;;;;;;6.00;6.00;;;;;19.48;79.75;99846.69;5020293;28;45473;-70
2022/08/28 02:31:36;;;;;;;;;7.33;7.33;;;;;19.54;79.39;99847.47;5020192;28;46047;-70
2022/08/28 02:34:01;;;;;;;;;10.33;10.33;;;;;19.60;78.79;99861.47;5020343;28;45521;-70
2022/08/28 02:36:27;;;;;;;;;7.33;7.33;;;;;19.58;78.48;99860.63;5020266;28;45253;-70
2022/08/28 02:38:53;;;;;;;;;8.33;8.33;;;;;19.56;77.99;99854.50;5020761;28;45339;-70
2022/08/28 02:41:19;;;;;;;;;11.67;11.00;;;;;19.51;78.56;99844.88;5020096;28;45644;-70
2022/08/28 02:43:45;;;;;;;;;9.67;9.00;;;;;19.59;78.63;99864.16;5035440;28;45285;-71
2022/08/28 02:46:11;;;;;;;;;7.67;7.67;;;;;19.62;78.53;99874.72;5019994;28;45406;-72
2022/08/28 02:48:39;;;;;;;;;9.00;8.00;;;;;19.62;78.89;99862.31;5019848;28;45377;-72
2022/08/28 02:51:09;;;;;;;;;9.33;9.33;;;;;19.53;79.04;99854.53;5019454;28;46141;-73
2022/08/28 02:53:39;;;;;;;;;7.00;7.00;;;;;19.63;79.03;99866.72;5019596;28;45491;-71
2022/08/28 02:56:05;;;;;;;;;9.33;8.00;;;;;19.55;79.00;99852.72;5019658;28;45454;-71
2022/08/28 02:58:33;;;;;;;;;10.00;9.00;;;;;19.40;79.89;99840.66;5019828;28;45503;-70
2022/08/28 03:01:00;;;;;;;;;9.67;9.00;;;;;19.45;79.42;99864.38;5019443;28;46350;-70
2022/08/28 03:03:29;;;;;;;;;8.33;8.33;;;;;19.36;79.41;99862.78;5019582;28;45268;-70
2022/08/28 03:05:56;;;;;;;;;7.00;6.33;;;;;18.80;79.60;99783.41;5019549;28;45532;-72
2022/08/28 03:08:22;;;;;;;;;8.67;7.33;;;;;19.11;79.93;99829.66;5019631;28;45504;-73
2022/08/28 03:10:47;;;;;;;;;7.67;7.67;;;;;19.14;80.66;99849.03;5019530;28;46206;-72
2022/08/28 03:13:13;;;;;;;;;9.33;9.33;;;;;19.20;80.61;99854.22;5019306;28;45348;-72
2022/08/28 03:15:42;;;;;;;;;10.67;10.33;;;;;19.18;80.87;99840.13;5019369;28;45748;-70
2022/08/28 03:18:08;;;;;;;;;8.33;8.33;;;;;19.19;80.96;99841.88;5019435;28;45402;-70
2022/08/28 03:20:33;;;;;;;;;8.00;7.00;;;;;19.23;80.27;99845.34;5019068;28;45556;-70
2022/08/28 03:25:43;;;;;;;;;9.00;7.67;;;;;19.31;79.48;99855.81;5018978;28;45495;-70
2022/08/28 03:28:09;;;;;;;;;8.67;8.33;;;;;19.27;79.24;99850.56;5017302;28;45253;-70
2022/08/28 03:30:35;;;;;;;;;7.00;7.00;;;;;19.23;79.37;99840.91;5017544;28;48190;-73
2022/08/28 03:33:00;;;;;;;;;9.00;8.33;;;;;19.18;79.40;99829.56;5017663;28;45493;-71
2022/08/28 03:35:26;;;;;;;;;10.33;9.33;;;;;19.24;79.69;99837.38;5019228;28;45311;-73
2022/08/28 03:37:51;;;;;;;;;9.00;9.00;;;;;19.20;80.32;99833.03;5017975;28;45408;-71
2022/08/28 03:40:18;;;;;;;;;9.00;9.00;;;;;19.03;80.51;99821.84;5019156;28;46539;-73
2022/08/28 03:42:44;;;;;;;;;9.33;9.33;;;;;19.13;80.02;99841.09;5018874;28;45479;-73
2022/08/28 03:45:10;;;;;;;;;9.00;8.67;;;;;19.14;80.96;99848.13;5018790;28;45550;-70
2022/08/28 03:47:38;;;;;;;;;8.33;8.33;;;;;19.10;81.25;99851.72;5019052;28;45631;-70
2022/08/28 03:50:05;;;;;;;;;7.00;7.00;;;;;18.98;80.57;99835.16;5018648;28;46575;-70
2022/08/28 03:52:31;;;;;;;;;9.00;8.67;;;;;19.09;80.26;99850.88;5018730;28;45430;-71
2022/08/28 03:54:56;;;;;;;;;12.00;10.33;;;;;19.06;80.59;99835.06;5018759;28;45333;-70
2022/08/28 03:57:22;;;;;;;;;11.00;11.00;;;;;19.08;82.26;99844.72;5019303;28;45522;-70
2022/08/28 03:59:49;;;;;;;;;8.67;8.67;;;;;19.02;81.66;99839.50;5018882;28;46047;-70
2022/08/28 04:02:18;;;;;;;;;10.00;10.00;;;;;19.00;81.11;99833.38;5018841;28;45236;-70
2022/08/28 04:04:44;;;;;;;;;9.00;9.00;;;;;19.08;80.16;99847.34;5018691;28;45251;-70
2022/08/28 04:07:10;;;;;;;;;11.00;9.67;;;;;19.14;79.59;99856.97;5018737;28;45231;-70
2022/08/28 04:09:36;;;;;;;;;7.33;7.33;;;;;19.04;78.96;99840.38;5018311;28;46183;-70
2022/08/28 04:12:02;;;;;;;;;8.00;8.00;;;;;19.05;79.49;99841.22;5018347;28;45253;-70
2022/08/28 04:14:27;;;;;;;;;10.00;7.67;;;;;19.07;79.52;99845.59;5017226;28;45495;-73
2022/08/28 04:16:53;;;;;;;;;8.67;8.67;;;;;19.01;79.65;99829.81;5018963;28;45232;-73
2022/08/28 04:19:18;;;;;;;;;9.00;8.33;;;;;19.06;79.07;99835.06;5018225;28;45389;-73
2022/08/28 04:21:44;;;;;;;;;9.33;9.33;;;;;19.01;79.25;99824.50;5017986;28;45341;-73
2022/08/28 04:24:12;;;;;;;;;11.00;11.00;;;;;18.96;79.17;99817.53;5018449;28;45225;-71
2022/08/28 04:26:38;;;;;;;;;8.67;8.33;;;;;19.01;79.63;99826.28;5017276;28;45453;-72
2022/08/28 04:29:04;;;;;;;;;9.33;9.00;;;;;19.06;80.21;99832.41;5016550;28;47188;-71
2022/08/28 04:31:30;;;;;;;;;11.00;10.00;;;;;18.92;79.85;99807.91;5017982;28;45395;-70
2022/08/28 04:33:57;;;;;;;;;12.00;10.67;;;;;18.99;80.05;99823.66;5018224;28;45417;-71
2022/08/28 04:36:22;;;;;;;;;7.33;7.00;;;;;19.03;79.42;99838.59;5018662;28;45487;-70
2022/08/28 04:38:48;;;;;;;;;9.00;8.00;;;;;19.00;79.63;99833.38;5016189;28;47036;-70
2022/08/28 04:41:15;;;;;;;;;7.00;7.00;;;;;19.01;80.21;99850.97;5018066;28;45403;-70
2022/08/28 04:43:42;;;;;;;;;9.00;8.67;;;;;18.94;79.85;99835.22;5033492;28;45290;-70
2022/08/28 04:46:11;;;;;;;;;9.33;8.33;;;;;19.00;79.78;99840.41;5017994;28;45379;-73
2022/08/28 04:48:39;;;;;;;;;11.00;11.00;;;;;19.02;79.61;99838.63;5016211;28;46487;-73
2022/08/28 04:51:08;;;;;;;;;10.67;10.33;;;;;19.01;79.58;99847.47;5017832;28;45412;-72
2022/08/28 04:53:35;;;;;;;;;7.00;6.33;;;;;18.85;79.07;99831.81;5017898;28;45260;-73
2022/08/28 04:56:03;;;;;;;;;8.67;8.33;;;;;18.93;79.26;99849.38;5018081;28;45409;-74
2022/08/28 04:58:29;;;;;;;;;7.33;7.33;;;;;18.89;79.25;99856.47;5017651;28;46727;-73
2022/08/28 05:00:55;;;;;;;;;9.33;8.00;;;;;18.87;79.34;99855.63;5016571;28;45242;-70
2022/08/28 05:03:21;;;;;;;;;9.00;7.67;;;;;18.86;79.35;99853.84;5017848;28;45332;-71
2022/08/28 05:05:50;;;;;;;;;10.67;9.00;;;;;18.79;79.72;99845.16;5017832;28;45517;-70
2022/08/28 05:08:18;;;;;;;;;9.33;9.33;;;;;18.87;79.48;99853.84;5017287;28;46200;-70
2022/08/28 05:10:45;;;;;;;;;9.67;9.33;;;;;18.85;79.40;99863.56;5016109;28;45263;-70
2022/08/28 05:13:14;;;;;;;;;7.00;6.33;;;;;18.76;79.10;99846.94;5017609;28;45251;-70
2022/08/28 05:15:44;;;;;;;;;10.00;8.67;;;;;18.80;79.09;99861.88;5017681;28;45388;-73
2022/08/28 05:18:12;;;;;;;;;9.00;9.00;;;;;18.79;79.10;99868.97;5017092;28;45461;-71
2022/08/28 05:20:41;;;;;;;;;11.67;9.33;;;;;18.72;78.61;99856.72;5017452;28;45422;-73
2022/08/28 05:23:08;;;;;;;;;8.00;8.00;;;;;18.76;79.17;99862.81;5017552;28;45459;-73
2022/08/28 05:25:44;;;;;;;;;7.33;7.33;;;;;18.69;79.80;99873.47;5017542;28;45361;-71
2022/08/28 05:28:11;;;;;;;;;10.33;10.33;;;;;18.69;79.67;99869.97;5016827;28;46051;-72
2022/08/28 05:30:39;;;;;;;;;10.33;8.67;;;;;18.65;80.39;99857.69;5017173;28;45436;-74
2022/08/28 05:33:06;;;;;;;;;9.33;8.67;;;;;18.54;80.43;99855.16;5017363;28;45455;-73
2022/08/28 05:35:37;;;;;;;;;11.67;10.67;;;;;18.61;80.85;99864.78;5017309;28;45263;-73
2022/08/28 05:38:03;;;;;;;;;11.00;10.33;;;;;18.62;81.06;99865.63;5016890;28;46116;-73
2022/08/28 05:40:29;;;;;;;;;12.33;10.33;;;;;18.75;80.75;99876.94;5015556;28;45426;-71
2022/08/28 05:42:55;;;;;;;;;9.67;8.33;;;;;18.72;80.21;99867.28;5016041;28;45519;-73
2022/08/28 05:45:21;;;;;;;;;10.67;9.67;;;;;18.91;79.99;99882.91;5016007;28;45440;-71
2022/08/28 05:47:47;;;;;;;;;8.33;8.33;;;;;18.84;79.60;99864.50;5016984;28;46373;-70
2022/08/28 05:50:13;;;;;;;;;12.00;12.00;;;;;18.91;79.41;99877.63;5016054;28;45472;-70
2022/08/28 05:52:41;;;;;;;;;10.00;10.00;;;;;18.93;79.02;99871.41;5017041;28;45519;-70
2022/08/28 05:55:08;;;;;;;;;11.00;10.67;;;;;19.04;78.50;99874.78;5017060;28;45466;-70
2022/08/28 05:57:34;;;;;;;;;10.00;10.00;;;;;19.15;77.81;99886.97;5016648;28;46032;-73
2022/08/28 06:00:01;;;;;;;;;11.67;10.00;;;;;19.20;77.75;99888.66;5017053;28;45904;-72
2022/08/28 06:02:27;;;;;;;;;7.67;7.33;;;;;19.14;77.17;99874.59;5016014;28;45529;-73
2022/08/28 06:04:53;;;;;;;;;10.33;10.33;;;;;19.22;76.85;99883.34;5016977;28;45348;-72
2022/08/28 06:07:19;;;;;;;;;8.33;8.33;;;;;19.33;76.69;99896.38;5016778;28;45591;-77
2022/08/28 06:09:44;;;;;;;;;9.33;9.33;;;;;19.37;76.46;99877.75;5016475;28;45589;-72
2022/08/28 06:12:10;;;;;;;;;11.33;10.33;;;;;19.52;76.43;99889.88;5016786;28;45249;-72
2022/08/28 06:14:36;;;;;;;;;11.33;10.67;;;;;19.41;76.03;99882.09;5015669;28;45484;-70
2022/08/28 06:17:03;;;;;;;;;9.33;9.33;;;;;19.44;76.22;99883.84;5013345;28;46441;-71
2022/08/28 06:19:31;;;;;;;;;11.00;11.00;;;;;19.43;76.36;99884.72;5014957;28;45498;-71
2022/08/28 06:21:59;;;;;;;;;9.33;8.67;;;;;19.52;76.05;99889.88;5047981;27;45453;-72
2022/08/28 06:24:26;;;;;;;;;8.67;8.00;;;;;19.55;76.24;99865.97;5046954;27;45417;-71
2022/08/28 06:26:53;;;;;;;;;8.67;8.67;;;;;19.78;75.84;99873.56;5015617;28;45482;-71
2022/08/28 06:29:19;;;;;;;;;9.33;8.00;;;;;19.94;75.46;99883.88;5016063;28;45469;-71
2022/08/28 06:31:45;;;;;;;;;9.67;8.00;;;;;20.00;75.14;99879.31;5016562;28;45376;-72
2022/08/28 06:34:11;;;;;;;;;10.67;8.67;;;;;20.08;74.54;99865.06;5032009;28;45482;-72
2022/08/28 06:36:41;;;;;;;;;10.00;9.33;;;;;20.23;74.26;99883.28;5016129;28;46108;-72
2022/08/28 06:39:09;;;;;;;;;10.67;9.00;;;;;22.11;72.20;99887.69;5016117;28;45565;-72
2022/08/28 06:41:39;;;;;;;;;8.67;8.67;;;;;24.95;62.29;99860.41;5031450;28;45509;-73
2022/08/28 06:44:06;;;;;;;;;9.33;9.00;;;;;26.84;55.41;99859.28;5017107;28;45521;-71
2022/08/28 06:46:33;;;;;;;;;8.67;8.00;;;;;28.61;50.81;99869.00;5014032;28;46291;-71
2022/08/28 06:49:02;;;;;;;;;6.33;6.00;;;;;29.87;47.26;99853.66;5047131;28;45334;-72
2022/08/28 06:51:27;;;;;;;;;8.67;8.00;;;;;30.92;44.29;99853.34;5030744;28;45557;-72
2022/08/28 06:53:53;;;;;;;;;12.00;9.00;;;;;31.75;43.45;99847.75;5015543;28;45375;-72
2022/08/28 06:56:20;;;;;;;;;8.67;8.00;;;;;33.00;41.20;99871.31;5014569;28;45498;-74
2022/08/28 06:58:48;;;;;;;;;7.00;7.00;;;;;33.96;39.16;99865.81;5015855;28;45470;-73
2022/08/28 07:01:24;;;;;;;;;7.00;7.00;;;;;34.92;37.40;99880.78;5017727;28;45450;-72
2022/08/28 07:03:52;;;;;;;;;9.00;8.00;;;;;35.72;35.74;99871.41;5019335;28;45478;-71
2022/08/28 07:06:20;;;;;;;;;8.00;8.00;;;;;36.16;35.18;99853.09;5017769;28;46548;-68
2022/08/28 07:08:46;;;;;;;;;7.00;7.00;;;;;36.81;33.99;99861.78;5018824;28;45502;-69
2022/08/28 07:11:20;;;;;;;;;9.00;7.00;;;;;37.26;31.95;99857.72;5018741;28;45494;-67
2022/08/28 07:13:47;;;;;;;;;5.67;5.00;;;;;37.81;31.79;99859.88;5017220;28;45415;-68
2022/08/28 07:16:16;;;;;;;;;7.00;7.00;;;;;38.43;31.65;99852.06;5019169;28;46237;-68
2022/08/28 07:18:42;;;;;;;;;9.33;8.00;;;;;39.21;30.98;99869.91;4954837;28;45495;-68
2022/08/28 07:21:08;;;;;;;;;9.33;9.00;;;;;39.69;28.41;99861.28;5016955;28;45577;-69
2022/08/28 07:23:35;;;;;;;;;7.67;6.67;;;;;40.23;27.91;99863.03;5017584;28;45821;-67
2022/08/28 07:26:07;;;;;;;;;8.00;7.00;;;;;40.55;28.25;99856.91;5017794;28;45740;-69
2022/08/28 07:28:33;;;;;;;;;5.67;5.67;;;;;40.99;26.88;99858.59;5017337;28;45506;-70
2022/08/28 07:31:02;;;;;;;;;7.00;7.00;;;;;41.50;27.94;99859.34;5014655;28;45617;-69
2022/08/28 07:33:28;;;;;;;;;8.67;7.67;;;;;42.11;25.73;99866.19;5017963;28;45595;-70
2022/08/28 07:35:55;;;;;;;;;9.67;8.33;;;;;42.52;25.72;99873.47;5017211;28;45584;-70
2022/08/28 07:38:21;;;;;;;;;8.00;7.33;;;;;42.91;25.10;99867.13;5032513;28;45535;-69
2022/08/28 07:40:47;;;;;;;;;6.33;6.33;;;;;43.44;25.41;99872.81;5032469;28;45491;-71
2022/08/28 07:46:04;;;;;;;;;7.33;6.00;;;;;43.99;24.41;99870.75;5016295;28;45897;-69
2022/08/28 07:48:29;;;;;;;;;3.00;3.00;;;;;44.47;23.32;99874.00;5017379;28;45699;-69
2022/08/28 07:50:55;;;;;;;;;6.33;6.33;;;;;44.58;23.12;99870.81;5017744;28;45426;-68
2022/08/28 07:53:21;;;;;;;;;5.00;5.00;;;;;44.95;22.62;99879.09;5033019;28;45501;-70
2022/08/28 07:55:52;;;;;;;;;6.33;6.00;;;;;45.20;22.81;99860.31;5016885;28;45965;-69
2022/08/28 07:58:20;;;;;;;;;6.00;6.00;;;;;45.51;21.78;99857.25;5017251;28;45427;-67
2022/08/28 08:00:46;;;;;;;;;7.00;6.00;;;;;45.57;21.50;99866.63;5016557;28;45347;-68
2022/08/28 08:03:13;;;;;;;;;6.33;6.00;;;;;44.75;23.74;99860.44;5032534;28;45518;-68
2022/08/28 08:05:39;;;;;;;;;5.33;5.33;;;;;43.50;24.17;99850.06;5017357;28;46024;-70
2022/08/28 08:08:05;;;;;;;;;5.33;5.33;;;;;44.55;22.70;99809.72;5032411;28;45387;-69
2022/08/28 08:10:30;;;;;;;;;5.67;5.67;;;;;46.02;21.73;99861.66;5017322;28;45386;-71
2022/08/28 08:12:56;;;;;;;;;7.00;5.67;;;;;46.98;20.58;99850.72;5031031;28;45527;-69
2022/08/28 08:15:22;;;;;;;;;6.67;6.00;;;;;48.08;19.51;99857.84;5016725;28;46158;-71
2022/08/28 08:17:47;;;;;;;;;5.67;5.67;;;;;48.69;19.04;99863.00;5032384;28;45534;-71
2022/08/28 08:20:13;;;;;;;;;6.00;5.33;;;;;49.28;19.12;99865.66;5032358;28;45882;-71
2022/08/28 08:22:38;;;;;;;;;6.33;6.33;;;;;49.72;18.55;99841.59;5030000;28;45587;-68
2022/08/28 08:25:04;;;;;;;;;4.67;4.67;;;;;49.48;18.29;99844.16;5021332;28;46315;-71
2022/08/28 08:27:31;;;;;;;;;7.00;6.33;;;;;47.09;20.05;99851.16;5016583;28;45475;-70
2022/08/28 08:29:57;;;;;;;;;5.67;5.33;;;;;47.19;20.73;99854.41;5017115;28;45510;-70
2022/08/28 08:32:23;;;;;;;;;5.00;4.67;;;;;48.02;20.04;99855.94;5016724;28;45412;-70
2022/08/28 08:34:57;;;;;;;;;6.00;6.00;;;;;48.24;20.61;99859.28;5016475;28;46498;-69
2022/08/28 08:37:22;;;;;;;;;6.67;6.00;;;;;48.84;20.29;99870.16;5048736;27;45551;-71
2022/08/28 08:39:49;;;;;;;;;6.67;6.67;;;;;48.88;19.45;99871.44;5016202;28;45387;-71
2022/08/28 08:42:30;;;;;;;;;6.00;6.00;;;;;48.45;20.31;99866.47;5016574;28;45395;-70
2022/08/28 08:45:03;;;;;;;;;4.00;4.00;;;;;48.64;19.99;99850.84;5016578;28;45485;-70
2022/08/28 08:47:42;;;;;;;;;9.67;9.67;;;;;48.36;19.72;99846.47;5016019;28;45696;-69
2022/08/28 08:50:22;;;;;;;;;16.33;14.67;;;;;48.13;21.31;99863.56;5030853;28;45553;-71
2022/08/28 08:53:25;;;;;;;;;11.33;11.33;;;;;48.16;20.45;99879.75;5016177;28;45469;-71
2022/08/28 08:55:53;;;;;;;;;7.00;6.00;;;;;47.58;21.14;99866.59;5048022;28;47645;-72
2022/08/28 08:58:32;;;;;;;;;5.00;5.00;;;;;47.68;21.47;99866.16;5015691;28;45532;-71
2022/08/28 09:01:10;;;;;;;;;7.67;7.67;;;;;47.64;21.34;99864.91;5015140;28;45543;-71
2022/08/28 09:04:01;;;;;;;;;7.00;5.33;;;;;47.18;21.18;99861.84;5016632;28;45353;-71
2022/08/28 09:06:51;;;;;;;;;6.67;6.67;;;;;46.70;21.98;99861.00;5031034;28;47259;-71
2022/08/28 09:09:31;;;;;;;;;9.00;8.67;;;;;46.38;22.50;99857.88;5016052;28;45333;-72
2022/08/28 09:12:05;;;;;;;;;10.67;10.67;;;;;46.31;23.15;99854.25;5014606;28;45657;-73
2022/08/28 09:14:40;;;;;;;;;8.67;8.00;;;;;46.54;22.37;99871.38;5016356;28;45229;-71
2022/08/28 09:17:11;;;;;;;;;6.00;6.00;;;;;46.52;22.62;99856.94;5016142;28;46121;-71
2022/08/28 09:19:40;;;;;;;;;8.00;7.00;;;;;46.18;22.58;99855.00;5016312;28;45463;-69
2022/08/28 09:22:05;;;;;;;;;7.33;7.33;;;;;46.31;22.12;99873.56;5014998;28;45591;-70
2022/08/28 09:24:36;;;;;;;;;7.00;6.00;;;;;46.14;22.87;99875.78;5015152;28;45449;-71
2022/08/28 09:27:07;;;;;;;;;6.67;6.67;;;;;46.20;22.64;99886.91;5015511;28;45567;-72
2022/08/28 09:29:42;;;;;;;;;8.67;7.00;;;;;46.45;21.81;99880.88;5016123;28;45494;-71
2022/08/28 09:32:22;;;;;;;;;6.00;6.00;;;;;46.62;21.52;99875.88;5016142;28;45411;-71
2022/08/28 09:35:13;;;;;;;;;6.67;6.67;;;;;46.38;22.73;99878.06;5030631;28;45377;-71
2022/08/28 09:37:41;;;;;;;;;5.67;5.67;;;;;46.63;21.52;99866.53;5047202;28;47977;-70
2022/08/28 09:43:25;;;;;;;;;6.33;6.33;;;;;47.14;21.07;99877.13;5015870;28;45256;-71
2022/08/28 09:43:27;;;;;;;;;6.00;6.00;;;;;47.38;21.17;99878.47;5015619;28;45380;-71
2022/08/28 09:46:20;;;;;;;;;6.00;6.00;;;;;47.30;21.41;99875.06;5015843;28;45461;-71
2022/08/28 09:48:51;;;;;;;;;8.00;7.00;;;;;47.78;20.84;99877.66;5015763;28;45403;-71
2022/08/28 09:51:19;;;;;;;;;7.00;7.00;;;;;48.12;21.31;99884.88;5014879;28;45400;-72
2022/08/28 09:53:51;;;;;;;;;6.33;6.00;;;;;48.39;19.74;99884.81;5029635;28;45430;-72
2022/08/28 09:56:34;;;;;;;;;7.00;6.33;;;;;48.46;19.83;99877.34;5015670;28;45167;-71
2022/08/28 09:59:15;;;;;;;;;5.67;5.67;;;;;48.10;20.78;99877.84;5014641;28;46297;-71
2022/08/28 10:01:47;;;;;;;;;7.67;7.00;;;;;47.98;20.27;99864.66;5014592;28;45454;-71
2022/08/28 10:04:16;;;;;;;;;18.33;17.00;;;;;47.73;20.87;99824.84;5014670;28;46031;-71
2022/08/28 10:06:48;;;;;;;;;8.00;8.00;;;;;48.23;20.98;99876.94;5015571;28;45403;-71
2022/08/28 10:09:38;;;;;;;;;11.67;11.33;;;;;48.46;20.82;99882.03;5015166;28;46279;-72
2022/08/28 10:12:21;;;;;;;;;7.33;7.33;;;;;48.60;20.30;99883.69;5014491;28;45481;-71
2022/08/28 10:15:03;;;;;;;;;9.33;8.67;;;;;48.51;20.83;99874.78;5014618;28;45549;-72
2022/08/28 10:17:55;;;;;;;;;7.33;7.33;;;;;48.49;21.08;99863.06;5014918;28;45345;-72
2022/08/28 10:20:32;;;;;;;;;6.33;5.67;;;;;48.78;21.38;99872.75;5014416;28;46316;-70
2022/08/28 10:23:11;;;;;;;;;7.33;7.33;;;;;48.57;20.54;99845.31;5012793;28;45376;-71
2022/08/28 10:26:08;;;;;;;;;6.33;6.33;;;;;48.59;20.19;99857.91;5014869;28;45450;-70
2022/08/28 10:28:54;;;;;;;;;6.00;6.00;;;;;48.52;21.04;99857.06;5014601;28;45302;-71
2022/08/28 10:31:40;;;;;;;;;7.33;7.33;;;;;48.32;21.55;99845.22;5013150;28;45543;-71
2022/08/28 10:34:42;;;;;;;;;10.33;10.00;;;;;48.30;21.69;99859.28;5015397;28;45232;-72
2022/08/28 10:37:22;;;;;;;;;16.67;16.33;;;;;48.28;22.34;99855.88;5016727;28;45401;-72
2022/08/28 10:40:01;;;;;;;;;9.00;8.33;;;;;47.78;21.66;99848.06;5033443;28;45404;-71
2022/08/28 10:42:34;;;;;;;;;8.00;7.67;;;;;47.02;22.21;99840.09;5018374;28;45343;-71
2022/08/28 10:45:09;;;;;;;;;11.67;10.67;;;;;46.41;22.69;99830.69;5033765;28;45374;-72
2022/08/28 10:47:38;;;;;;;;;17.00;16.00;;;;;46.30;23.33;99822.13;5033261;28;45533;-71
2022/08/28 10:50:26;;;;;;;;;12.67;12.33;;;;;46.01;23.40;99826.84;5018607;28;45346;-71
2022/08/28 10:53:21;;;;;;;;;7.33;7.33;;;;;45.07;23.63;99825.19;5018668;28;46500;-71
2022/08/28 10:56:01;;;;;;;;;7.33;7.00;;;;;44.50;24.38;99824.09;5019110;28;45501;-71
2022/08/28 10:58:29;;;;;;;;;8.67;8.00;;;;;43.79;24.42;99813.50;5018755;28;45487;-71
2022/08/28 11:01:08;;;;;;;;;6.00;6.00;;;;;42.20;25.78;99803.03;5033592;28;45234;-71
2022/08/28 11:03:45;;;;;;;;;7.67;7.33;;;;;40.58;27.57;99807.28;5018360;28;46400;-71
2022/08/28 11:06:23;;;;;;;;;6.33;5.67;;;;;40.03;28.37;99816.75;5018975;28;45386;-71
2022/08/28 11:08:57;;;;;;;;;7.33;6.00;;;;;38.69;29.79;99808.56;5017511;28;45326;-70
2022/08/28 11:11:42;;;;;;;;;7.67;7.67;;;;;37.94;31.82;99813.19;5019571;28;45475;-71
2022/08/28 11:14:09;;;;;;;;;5.33;5.33;;;;;37.18;32.39;99790.34;5019111;28;46054;-71
2022/08/28 11:16:39;;;;;;;;;5.67;5.67;;;;;37.24;33.28;99812.56;5018921;28;45324;-71
2022/08/28 11:19:36;;;;;;;;;4.67;4.67;;;;;37.02;33.41;99811.81;5018794;28;45482;-71
2022/08/28 11:22:33;;;;;;;;;5.67;5.67;;;;;36.91;33.78;99807.38;5017625;28;45561;-71
2022/08/28 11:25:22;;;;;;;;;7.33;7.00;;;;;36.85;34.34;99807.94;5018152;28;46554;-70
2022/08/28 11:28:09;;;;;;;;;9.00;7.33;;;;;36.73;34.01;99811.78;5018488;28;45285;-71
2022/08/28 11:30:35;;;;;;;;;5.00;5.00;;;;;36.35;34.33;99776.16;5019020;28;45350;-71
2022/08/28 11:33:28;;;;;;;;;6.67;6.67;;;;;35.68;35.03;99793.00;5018940;28;45383;-70
2022/08/28 11:35:53;;;;;;;;;7.33;7.33;;;;;35.34;35.21;99806.75;5033835;28;45458;-70
2022/08/28 11:38:39;;;;;;;;;6.00;6.00;;;;;35.16;36.32;99799.19;5018133;28;45469;-70
2022/08/28 11:41:20;;;;;;;;;7.00;6.67;;;;;35.08;35.85;99784.50;5018229;28;45172;-70
2022/08/28 11:43:48;;;;;;;;;7.00;7.00;;;;;35.23;36.34;99799.50;5033660;28;45543;-69
2022/08/28 11:46:32;;;;;;;;;6.00;6.00;;;;;35.00;36.76;99791.44;5017247;28;46222;-69
2022/08/28 11:49:01;;;;;;;;;5.67;5.67;;;;;35.01;35.69;99803.16;5014208;28;45436;-70
2022/08/28 11:52:02;;;;;;;;;7.67;7.00;;;;;34.97;37.29;99794.41;5017328;28;45680;-71